• Join FlightAware (Why Join?)
  • Login
  • US Flag 
06:23PM EST


 

Airport Tracker/Info


-or-


 

Live Flight TrackerFlight Track Log ✈ UAL252 ✈ 15-Jun-2013 ✈ KLAX - KEWR

Flight Track Log - Related Links

Times and Time Zones

All times are in EDT time to prevent confusion due to time zone crossing. See the UAL252 flight status page for this flight to view local times or setup timezone preferences in your user account.

Time Position Orientation Groundspeed Altitude Reporting Facility
EDT Latitude Longitude Course Direction KTS MPH feet Rate Location/Type
06:04PM 33.9333 -118.4525 51° Northeast 185 213 1,800  Level Los Angeles Center
06:05PM 33.9111 -118.5333 252° West 238 274 4,200 2,516 Climbing Los Angeles Center
06:06PM 34.1364 -118.0605 59° Northeast  Level FlightAware Approximate
06:06PM 33.8639 -118.5797 219° Southwest 258 297 7,000  Level Los Angeles Center
06:07PM 34.2050 -117.9233 59° Northeast  Level FlightAware Approximate
06:07PM 33.8681 -118.5033 86° East 274 315 9,500  Level Los Angeles Center
06:08PM 34.2833 -117.7961 90° East  Level FlightAware Approximate
06:08PM 33.9278 -118.4378 42° Northeast 303 349 10,600  Level Los Angeles Center
06:09PM 34.3531 -117.6620 51° Northeast  Level FlightAware Approximate
06:09PM 33.9883 -118.3394 53° Northeast 354 407 12,400  Level Los Angeles Center
06:11PM 34.0603 -118.2117 56° Northeast 380 437 15,100 1,887 Climbing Los Angeles Center
06:12PM 34.1231 -118.1000 56° Northeast 398 458 16,300 1,403 Climbing Los Angeles Center
06:13PM 34.1917 -117.9781 56° Northeast 432 497 18,000 1,839 Climbing Los Angeles Center
06:14PM 34.2767 -117.8272 56° Northeast 451 519 20,100 1,790 Climbing Los Angeles Center
06:15PM 34.3478 -117.6983 56° Northeast 459 528 21,700 1,500 Climbing Los Angeles Center
06:16PM 34.4264 -117.5542 57° Northeast 485 558 23,200 1,403 Climbing Los Angeles Center
06:17PM 34.5025 -117.4189 56° Northeast 489 563 24,600 1,306 Climbing Los Angeles Center
06:18PM 34.5797 -117.2792 56° Northeast 500 575 25,900 1,103 Climbing Los Angeles Center
06:19PM 34.6575 -117.1353 57° Northeast 512 589 27,100 1,324 Climbing Los Angeles Center
06:20PM 34.7528 -116.9617 56° Northeast 518 596 28,900 1,548 Climbing Los Angeles Center
06:21PM 34.8672 -116.8089 48° Northeast 514 592 30,300 1,306 Climbing Los Angeles Center
06:22PM 34.9625 -116.6769 49° Northeast 520 598 31,600 968 Climbing Los Angeles Center
06:23PM 35.0578 -116.5453 49° Northeast 520 598 32,300 732 Climbing Los Angeles Center
06:24PM 35.1356 -116.4397 48° Northeast 522 601 33,100 976 Climbing Los Angeles Center
06:25PM 35.2561 -116.2811 47° Northeast 529 609 34,300 823 Climbing Los Angeles Center
06:26PM 35.3558 -116.1478 47° Northeast 531 611 34,800 339 Climbing Los Angeles Center
06:27PM 35.4728 -115.9856 48° Northeast 531 611 35,000 97 Climbing Los Angeles Center
06:28PM 35.5758 -115.8508 47° Northeast 532 612 35,000  Level Los Angeles Center
06:29PM 35.6725 -115.7200 48° Northeast 521 600 35,000  Level Los Angeles Center
06:30PM 35.7697 -115.5861 48° Northeast 524 603 35,000  Level Los Angeles Center
06:31PM 35.8667 -115.4525 48° Northeast 526 605 35,000  Level Los Angeles Center
06:32PM 35.9831 -115.2928 48° Northeast 527 606 35,000  Level Los Angeles Center
06:33PM 36.0783 -115.1581 49° Northeast 526 605 35,000  Level Los Angeles Center
06:34PM 36.1650 -115.0139 53° Northeast 527 606 35,000  Level Los Angeles Center
06:35PM 36.2489 -114.8661 55° Northeast 528 608 35,000  Level Los Angeles Center
06:37PM 36.3353 -114.7183 54° Northeast 531 611 35,000  Level Los Angeles Center
06:38PM 36.4208 -114.5708 54° Northeast 529 609 35,000  Level Los Angeles Center
06:39PM 36.5219 -114.3928 55° Northeast 529 609 35,000  Level Los Angeles Center
06:40PM 36.6089 -114.2431 54° Northeast 533 613 35,000  Level Los Angeles Center
06:41PM 36.6861 -114.1078 55° Northeast 528 608 35,000  Level Los Angeles Center
06:42PM 36.7789 -113.9478 54° Northeast 525 604 35,000  Level Los Angeles Center
06:43PM 36.8714 -113.7817 55° Northeast 525 604 35,000  Level Los Angeles Center
06:44PM 36.9553 -113.6339 55° Northeast 523 602 35,000  Level Los Angeles Center
06:45PM 37.0372 -113.4847 55° Northeast 522 601 35,000  Level Los Angeles Center
06:46PM 37.1028 -113.3661 55° Northeast 521 600 35,000  Level Los Angeles Center
06:47PM 37.2033 -113.1892 54° Northeast 521 600 35,000  Level Los Angeles Center
06:48PM 37.2847 -113.0406 55° Northeast 521 600 35,000  Level Los Angeles Center
06:49PM 37.3664 -112.8922 55° Northeast 522 601 35,000  Level Los Angeles Center
06:50PM 37.4633 -112.7147 55° Northeast 525 604 35,000  Level Los Angeles Center
06:51PM 37.5286 -112.5972 55° Northeast 525 604 35,000  Level Los Angeles Center
06:52PM 37.6269 -112.4189 55° Northeast 522 601 35,000  Level Los Angeles Center
06:53PM 37.7256 -112.2383 55° Northeast 522 601 35,000  Level Denver Center
06:54PM 37.8069 -112.0881 56° Northeast 521 600 35,000  Level Denver Center
06:55PM 37.8728 -111.9669 55° Northeast 523 602 35,000  Level Denver Center
06:56PM 37.9717 -111.7867 55° Northeast 522 601 35,000  Level Denver Center
06:57PM 38.0522 -111.6353 56° Northeast 521 600 35,000  Level Denver Center
06:58PM 38.1344 -111.4833 55° Northeast 522 601 35,000  Level Denver Center
06:59PM 38.2139 -111.3297 57° Northeast 521 600 35,000 49 Level Denver Center
07:00PM 38.3228 -111.1586 51° Northeast 521 600 35,100 439 Climbing Denver Center
07:01PM 38.4097 -111.0153 52° Northeast 513 590 35,900 682 Climbing Denver Center
07:02PM 38.4997 -110.8606 53° Northeast 508 585 36,600 500 Climbing Salt Lake Center
07:03PM 38.5847 -110.6908 57° Northeast 510 587 37,000 190 Climbing Salt Lake Center
07:04PM 38.6469 -110.5692 57° Northeast 510 587 37,000  Level Denver Center
07:05PM 38.7481 -110.3703 57° Northeast 521 600 37,000  Level Salt Lake Center
07:06PM 38.8247 -110.2214 57° Northeast 522 601 37,000  Level Salt Lake Center
07:08PM 38.9003 -110.0697 57° Northeast 526 605 37,000  Level Salt Lake Center
07:09PM 38.9897 -109.8925 57° Northeast 528 608 37,000  Level Salt Lake Center
07:10PM 39.0653 -109.7400 57° Northeast 529 609 37,000  Level Salt Lake Center
07:11PM 39.1528 -109.5603 58° Northeast 529 609 37,000  Level Denver Center
07:12PM 39.2281 -109.4119 57° Northeast 523 602 37,000  Level Salt Lake Center
07:13PM 39.3150 -109.2331 58° Northeast 522 601 37,000  Level Denver Center
07:14PM 39.3900 -109.0811 57° Northeast 526 605 37,000  Level Salt Lake Center
07:15PM 39.4642 -108.9300 58° Northeast 524 603 37,000  Level Salt Lake Center
07:16PM 39.5497 -108.7528 58° Northeast 528 608 37,000  Level Salt Lake Center
07:17PM 39.6347 -108.5781 58° Northeast 530 610 37,000  Level Denver Center
07:18PM 39.7086 -108.4244 58° Northeast 529 609 37,000  Level Denver Center
07:19PM 39.7972 -108.2422 58° Northeast 530 610 37,000  Level Denver Center
07:20PM 39.8683 -108.0878 59° Northeast 522 601 37,000  Level Denver Center
07:21PM 39.9558 -107.9047 58° Northeast 532 612 37,000  Level Denver Center
07:22PM 40.0286 -107.7467 59° Northeast 531 611 37,000  Level Denver Center
07:23PM 40.1136 -107.5636 59° Northeast 529 609 37,000  Level Denver Center
07:24PM 40.1872 -107.4053 59° Northeast 531 611 37,000  Level Denver Center
07:25PM 40.2611 -107.2478 58° Northeast 530 610 37,000  Level Denver Center
07:26PM 40.3567 -107.0381 59° Northeast 527 606 37,000  Level Denver Center
07:27PM 40.4411 -106.8533 59° Northeast 527 606 37,000  Level Denver Center
07:28PM 40.5097 -106.7064 58° Northeast 523 602 37,000  Level Denver Center
07:29PM 40.5847 -106.5400 59° Northeast 524 603 37,000  Level Denver Center
07:30PM 40.6667 -106.3556 60° Northeast 520 598 37,000  Level Denver Center
07:31PM 40.7383 -106.1986 59° Northeast 520 598 37,000  Level Denver Center
07:32PM 40.8153 -106.0203 60° Northeast 519 597 37,000  Level Denver Center
07:33PM 40.8889 -105.8561 59° Northeast 520 598 37,000  Level Denver Center
07:34PM 40.9619 -105.6883 60° Northeast 526 605 37,000  Level Denver Center
07:36PM 41.0369 -105.5183 60° Northeast 521 600 37,000  Level Denver Center
07:37PM 41.1381 -105.3461 52° Northeast 526 605 37,000  Level Denver Center
07:38PM 41.2283 -105.2039 50° Northeast 527 606 37,000  Level Denver Center
07:39PM 41.3325 -105.0372 50° Northeast 526 605 37,000  Level Denver Center
07:40PM 41.4228 -104.8936 50° Northeast 525 604 37,000  Level Denver Center
07:41PM 41.5147 -104.7539 49° Northeast 525 604 37,000  Level Denver Center
07:42PM 41.6203 -104.5922 49° Northeast 522 601 37,000  Level Denver Center
07:43PM 41.7111 -104.4508 49° Northeast 525 604 37,000  Level Denver Center
07:44PM 41.8156 -104.2869 49° Northeast 520 598 37,000  Level Denver Center
07:45PM 41.9053 -104.1469 49° Northeast 519 597 37,000  Level Denver Center
07:46PM 42.0089 -103.9806 50° Northeast 522 601 37,000  Level Denver Center
07:47PM 42.0986 -103.8406 49° Northeast 519 597 37,000  Level Denver Center
07:48PM 42.1961 -103.6650 53° Northeast 525 604 37,000  Level Denver Center
07:49PM 42.2714 -103.5081 57° Northeast 523 602 37,000  Level Denver Center
07:50PM 42.3428 -103.3094 64° Northeast 529 609 37,000  Level Denver Center
07:51PM 42.4086 -103.1056 66° East 530 610 37,000  Level Denver Center
07:52PM 42.4697 -102.8997 68° East 529 609 37,000  Level Denver Center
07:53PM 42.5233 -102.7217 68° East 532 612 37,000  Level Denver Center
07:54PM 42.5850 -102.5133 68° East 534 615 37,000  Level Denver Center
07:55PM 42.6378 -102.3331 68° East 536 617 37,000  Level Denver Center
07:56PM 42.6894 -102.1531 69° East 536 617 37,000  Level Denver Center
07:58PM 42.7525 -101.9419 68° East 541 623 37,000  Level Denver Center
07:59PM 42.8186 -101.7142 68° East 544 626 37,000  Level Denver Center
08:00PM 42.8783 -101.5022 69° East 539 620 37,000  Level Denver Center
08:01PM 42.9267 -101.3344 68° East 544 626 37,000  Level Denver Center
08:02PM 42.9906 -101.1036 69° East 544 626 37,000  Level Denver Center
08:03PM 43.0442 -100.9106 69° East 545 627 37,000  Level Denver Center
08:04PM 43.0972 -100.7175 69° East 544 626 37,000  Level Denver Center
08:05PM 43.1492 -100.5253 70° East 543 625 37,000  Level Denver Center
08:06PM 43.2017 -100.3322 69° East 542 624 37,000  Level Denver Center
08:07PM 43.2436 -100.1778 70° East 544 626 37,000  Level Denver Center
08:08PM 43.3069 -99.9472 69° East 542 624 37,000  Level Denver Center
08:09PM 43.3681 -99.7156 70° East 540 621 37,000  Level Denver Center
08:10PM 43.4192 -99.5258 70° East 536 617 37,000  Level Minneapolis Center
08:11PM 43.4794 -99.2958 70° East 536 617 37,000  Level Minneapolis Center
08:12PM 43.5283 -99.1025 71° East 536 617 37,000  Level Minneapolis Center
08:13PM 43.5775 -98.9092 71° East 537 618 37,000  Level Minneapolis Center
08:14PM 43.6267 -98.7161 71° East 536 617 37,000  Level Minneapolis Center
08:15PM 43.6808 -98.5028 71° East 538 619 37,000  Level Minneapolis Center
08:16PM 43.7297 -98.3072 71° East 539 620 37,000  Level Minneapolis Center
08:17PM 43.7689 -98.1511 71° East 540 621 37,000  Level Minneapolis Center
08:18PM 43.8008 -97.9075 80° East 538 619 37,000  Level Minneapolis Center
08:19PM 43.8086 -97.7011 87° East 539 620 37,000  Level Minneapolis Center
08:20PM 43.8178 -97.4961 86° East 535 616 37,000  Level Minneapolis Center
08:21PM 43.8253 -97.2906 87° East 537 618 37,000  Level Minneapolis Center
08:22PM 43.8322 -97.0847 87° East 537 618 37,000  Level Minneapolis Center
08:23PM 43.8417 -96.8389 87° East 537 618 37,000  Level Minneapolis Center
08:24PM 43.8489 -96.6333 87° East 539 620 37,000  Level Minneapolis Center
08:25PM 43.8547 -96.4278 88° East 541 623 37,000  Level Minneapolis Center
08:26PM 43.8617 -96.2236 87° East 540 621 37,000  Level Minneapolis Center
08:27PM 43.8675 -96.0206 88° East 538 619 37,000  Level Minneapolis Center
08:28PM 43.8722 -95.8194 88° East 532 612 37,000  Level Minneapolis Center
08:29PM 43.8786 -95.5772 88° East 529 609 37,000  Level Minneapolis Center
08:30PM 43.8825 -95.3761 88° East 525 604 37,000  Level Minneapolis Center
08:32PM 43.8869 -95.1756 88° East 524 603 37,000  Level Minneapolis Center
08:33PM 43.8900 -94.9750 89° East 522 601 37,000  Level Minneapolis Center
08:34PM 43.8939 -94.7742 88° East 522 601 37,000  Level Minneapolis Center
08:35PM 43.8978 -94.5739 88° East 522 601 37,000  Level Minneapolis Center
08:36PM 43.9031 -94.3731 88° East 523 602 37,000  Level Minneapolis Center
08:37PM 43.9064 -94.1442 89° East 525 604 37,000  Level Minneapolis Center
08:38PM 43.9081 -93.9417 89° East 527 606 37,000  Level Minneapolis Center
08:39PM 43.9106 -93.7403 89° East 528 608 37,000  Level Minneapolis Center
08:40PM 43.9133 -93.5375 89° East 530 610 37,000  Level Minneapolis Center
08:41PM 43.9144 -93.3353 89° East 529 609 37,000  Level Minneapolis Center
08:42PM 43.9156 -93.0914 90° East 532 612 37,000  Level Minneapolis Center
08:43PM 43.9169 -92.8889 89° East 531 611 37,000  Level Minneapolis Center
08:44PM 43.9156 -92.6861 90° East 531 611 37,000  Level Minneapolis Center
08:45PM 43.9161 -92.4839 90° East 530 610 37,000  Level Minneapolis Center
08:46PM 43.9169 -92.2803 90° East 531 611 37,000  Level Minneapolis Center
08:47PM 43.9164 -92.0756 90° East 533 613 37,000  Level Minneapolis Center
08:48PM 43.9147 -91.8303 90° East 534 615 37,000  Level Minneapolis Center
08:49PM 43.8953 -91.6558 99° East 526 605 37,000  Level Minneapolis Center
08:50PM 43.8442 -91.4686 111° Southeast 522 601 37,000  Level Minneapolis Center
08:51PM 43.7939 -91.2836 111° Southeast 518 596 37,000  Level Minneapolis Center
08:52PM 43.7450 -91.0972 110° East 518 596 37,000  Level Minneapolis Center
08:53PM 43.6836 -90.8728 111° Southeast 522 601 37,000  Level Minneapolis Center
08:54PM 43.6200 -90.6953 116° Southeast 519 597 37,000  Level Minneapolis Center
08:55PM 43.5492 -90.5231 120° Southeast 519 597 37,000  Level Minneapolis Center
08:56PM 43.5211 -90.4561 120° Southeast 519 597 37,000  Level Chicago Center
08:57PM 43.4444 -90.2717 120° Southeast 521 600 37,000  Level Chicago Center
08:58PM 43.3764 -90.0992 118° Southeast 516 594 37,000  Level Chicago Center
08:59PM 43.3028 -89.9303 121° Southeast 515 593 37,000  Level Chicago Center
09:00PM 43.2111 -89.7386 123° Southeast 516 594 37,000  Level Chicago Center
09:01PM 43.1319 -89.5719 123° Southeast 521 600 37,000  Level Chicago Center
09:02PM 43.0600 -89.3969 119° Southeast 532 612 37,000  Level Chicago Center
09:03PM 43.0089 -89.2028 110° East 546 628 37,000  Level Chicago Center
09:04PM 42.9617 -89.0056 108° East 549 632 37,000  Level Chicago Center
09:05PM 42.9269 -88.8008 103° East 563 648 37,000  Level Chicago Center
09:06PM 42.9011 -88.5586 98° East 560 644 37,000  Level Chicago Center
09:07PM 42.8772 -88.3494 99° East 563 648 37,000  Level Chicago Center
09:08PM 42.8528 -88.1431 99° East 558 642 37,000  Level Chicago Center
09:09PM 42.8272 -87.9367 100° East 554 638 37,000  Level Chicago Center
09:10PM 42.8014 -87.7303 100° East 557 641 37,000  Level Chicago Center
09:11PM 42.7761 -87.5236 99° East 554 638 37,000  Level Chicago Center
09:12PM 42.7464 -87.2903 100° East 555 639 37,000  Level Chicago Center
09:13PM 42.7211 -87.0850 99° East 553 636 37,000  Level Chicago Center
09:14PM 42.6936 -86.8800 100° East 554 638 37,000  Level Chicago Center
09:15PM 42.6669 -86.6781 100° East 550 633 37,000 -581 Level Chicago Center
09:16PM 42.6408 -86.4758 100° East 549 632 35,800 -976 Descending Chicago Center
09:17PM 42.6114 -86.2686 101° East 562 647 35,000 -390 Descending Chicago Center
09:18PM 42.5778 -86.0250 101° East 559 643 35,000  Level Chicago Center
09:19PM 42.5511 -85.8253 100° East 549 632 35,000  Level Chicago Center
09:20PM 42.5214 -85.6272 101° East 544 626 35,000  Level Chicago Center
09:21PM 42.4939 -85.4214 100° East 557 641 35,000  Level Chicago Center
09:22PM 42.4653 -85.2203 101° East 550 633 35,000  Level Chicago Center
09:23PM 42.4369 -85.0186 101° East 548 631 35,000  Level Chicago Center
09:24PM 42.4011 -84.7803 101° East 542 624 35,000  Level Chicago Center
09:25PM 42.3722 -84.5803 101° East 543 625 35,000  Level Chicago Center
09:26PM 42.3406 -84.3819 102° East 542 624 35,000  Level Chicago Center
09:27PM 42.3114 -84.1833 101° East 541 623 35,000  Level Chicago Center
09:28PM 42.2803 -83.9894 102° East 533 613 35,000  Level Chicago Center
09:29PM 42.2494 -83.7947 102° East 533 613 35,000  Level Chicago Center
09:30PM 42.2103 -83.5914 105° East 530 610 35,000  Level Cleveland Center
09:31PM 42.1783 -83.3711 101° East 530 610 35,000  Level Cleveland Center
09:32PM 42.1453 -83.1764 103° East 530 610 35,000  Level Cleveland Center
09:33PM 42.1142 -82.9847 102° East 530 610 35,000  Level Cleveland Center
09:34PM 42.0844 -82.7964 102° East 530 610 35,000  Level Cleveland Center
09:35PM 42.0525 -82.6050 103° East 524 603 35,000  Level Cleveland Center
09:36PM 42.0225 -82.4167 102° East 524 603 35,000 150 Level Cleveland Center
09:37PM 41.9875 -82.2369 105° East 512 589 35,300 700 Climbing Cleveland Center
09:38PM 41.9586 -82.0686 103° East 512 589 36,400 1,150 Climbing Cleveland Center
09:39PM 41.9256 -81.8808 103° East 512 589 37,600 850 Climbing Cleveland Center
09:40PM 41.9067 -81.6936 98° East 512 589 38,100 450 Climbing Cleveland Center
09:41PM 41.8875 -81.4981 97° East 512 589 38,500 400 Climbing Cleveland Center
09:42PM 41.8681 -81.2858 97° East 520 598 38,900 250 Climbing Cleveland Center
09:43PM 41.8506 -81.0906 97° East 520 598 39,000 50 Climbing Cleveland Center
09:44PM 41.8325 -80.9008 97° East 520 598 39,000  Level Cleveland Center
09:45PM 41.8139 -80.7058 97° East 527 606 39,000  Level Cleveland Center
09:46PM 41.7953 -80.5136 97° East 522 601 39,000  Level Cleveland Center
09:47PM 41.7761 -80.3186 97° East 522 601 39,000  Level Cleveland Center
09:48PM 41.7569 -80.1294 98° East 517 595 39,000  Level Cleveland Center
09:49PM 41.7372 -79.9569 99° East 524 603 39,000  Level Cleveland Center
09:50PM 41.7175 -79.7681 98° East 519 597 39,000  Level Cleveland Center
09:51PM 41.6992 -79.5792 97° East 519 597 39,000  Level Cleveland Center
09:52PM 41.6786 -79.3961 98° East 508 585 39,000  Level Cleveland Center
09:53PM 41.6578 -79.2131 99° East 503 579 39,000 -400 Level Cleveland Center
09:54PM 41.6389 -79.0328 98° East 497 572 38,200 -900 Descending Cleveland Center
09:55PM 41.6175 -78.8500 99° East 497 572 37,200 -444 Descending Cleveland Center
09:57PM 41.5786 -78.5253 99° East 494 568 37,000 -74 Descending New York Center
09:58PM 41.5592 -78.3428 98° East 494 568 37,000  Level New York Center
09:59PM 41.5372 -78.1600 99° East 489 563 37,000  Level New York Center
10:00PM 41.5133 -77.9744 100° East 494 568 37,000  Level New York Center
10:01PM 41.4886 -77.7944 100° East 494 568 37,000  Level New York Center
10:02PM 41.4619 -77.6117 101° East 494 568 37,000 -407 Level New York Center
10:03PM 41.4242 -77.4336 106° East 494 568 36,200 -1,815 Descending New York Center
10:04PM 41.3839 -77.2553 107° East 499 574 33,400 -2,950 Descending New York Center
10:05PM 41.3436 -77.0772 107° East 504 580 30,300 -2,900 Descending New York Center
10:06PM 41.3050 -76.8967 106° East 504 580 27,600 -2,500 Descending New York Center
10:07PM 41.2683 -76.7167 105° East 510 587 25,300 -2,100 Descending New York Center
10:08PM 41.2308 -76.5481 106° East 499 574 23,400 -1,983 Descending New York Center
10:09PM 41.1928 -76.3875 107° East 479 551 21,300 -2,067 Descending New York Center
10:10PM 41.1583 -76.2331 106° East 456 525 19,300 -1,966 Descending New York Center
10:11PM 41.1311 -76.0986 105° East 432 497 17,400 -1,884 Descending New York Center
10:12PM 41.0942 -75.9417 107° East 408 470 15,500 -1,600 Descending New York Center
10:13PM 41.0650 -75.8017 105° East 398 458 14,200 -1,109 Descending New York Center
10:14PM 41.0369 -75.6758 106° East 392 451 13,300 -1,377 Descending New York Center
10:15PM 40.9992 -75.5300 109° East 387 445 11,400 -1,500 Descending New York Center
10:16PM 40.9661 -75.4178 111° Southeast 376 433 10,300 -850 Descending New York Center
10:17PM 40.9311 -75.2947 111° Southeast 346 398 9,700 -900 Descending New York Center
10:18PM 40.9017 -75.1911 111° Southeast 310 357 8,500 -1,068 Descending New York Center
10:19PM 40.8850 -75.0831 101° East 299 344 7,600 -787 Descending New York Center
10:20PM 40.8864 -74.9869 89° East 283 326 6,900 -694 Descending New York Center
10:21PM 40.8822 -74.8686 93° East 289 333 6,200 -763 Descending New York Center
10:22PM 40.8817 -74.7617 90° East 294 338 5,400 -850 Descending New York Center
10:23PM 40.8747 -74.6597 95° East 288 331 4,500 -700 Descending New York Center
10:24PM 40.8714 -74.5661 93° East 283 326 4,000 -288 Descending New York Center
10:25PM 40.8667 -74.4333 93° East 280 322 3,900 -429 Descending New York TRACON
10:26PM 40.8667 -74.3333 90° East 282 325 3,100 -400 Descending New York TRACON
10:27PM 40.8500 -74.2333 102° East 270 311 3,100  Level New York TRACON
10:28PM 40.8500 -74.1500 90° East 211 243 3,100 -200 Level New York TRACON
10:29PM 40.8333 -74.1000 114° Southeast 207 238 2,700 -579 Descending New York TRACON
10:30PM 40.7833 -74.1000 180° South 181 208 2,000 -778 Descending New York TRACON